createdAt,value
2019-05-06T00:00:13.958Z,4.60
2019-05-06T00:02:44.237Z,3.93
2019-05-06T00:05:14.920Z,5.00
2019-05-06T00:07:54.407Z,5.17
2019-05-06T00:10:31.392Z,6.50
2019-05-06T00:13:01.591Z,5.70
2019-05-06T00:15:34.087Z,6.60
2019-05-06T00:18:04.494Z,4.83
2019-05-06T00:20:35.184Z,4.43
2019-05-06T00:23:11.069Z,3.83
2019-05-06T00:26:15.586Z,3.23
2019-05-06T00:28:53.891Z,3.17
2019-05-06T00:31:24.760Z,3.20
2019-05-06T00:33:56.008Z,2.23
2019-05-06T00:36:26.509Z,2.87
2019-05-06T00:39:00.105Z,2.37
2019-05-06T00:41:36.361Z,2.40
2019-05-06T00:44:05.499Z,2.20
2019-05-06T00:46:35.624Z,1.87
2019-05-06T00:49:05.981Z,2.53
2019-05-06T00:51:36.103Z,2.20
2019-05-06T00:54:14.862Z,3.17
2019-05-06T00:56:44.907Z,2.73
2019-05-06T00:59:15.101Z,2.67
2019-05-06T01:01:45.207Z,1.97
2019-05-06T01:04:15.711Z,2.23
2019-05-06T01:06:46.735Z,2.50
2019-05-06T01:09:18.937Z,2.50
2019-05-06T01:11:51.574Z,2.90
2019-05-06T01:14:35.195Z,3.60
2019-05-06T01:17:05.553Z,2.37
2019-05-06T01:19:36.025Z,2.13
2019-05-06T01:22:06.599Z,3.00
2019-05-06T01:24:36.892Z,2.60
2019-05-06T01:27:07.035Z,4.30
2019-05-06T01:29:37.108Z,5.00
2019-05-06T01:32:07.487Z,3.67
2019-05-06T01:34:37.760Z,3.67
2019-05-06T01:37:08.110Z,3.40
2019-05-06T01:40:00.101Z,5.70
2019-05-06T01:42:34.646Z,4.40
2019-05-06T01:45:05.984Z,4.80
2019-05-06T01:47:36.319Z,4.40
2019-05-06T01:50:07.587Z,2.47
2019-05-06T01:52:37.856Z,2.70
2019-05-06T01:55:08.345Z,2.50
2019-05-06T01:57:38.600Z,2.10
2019-05-06T02:00:09.461Z,2.30
2019-05-06T02:02:39.741Z,1.60
2019-05-06T02:05:10.107Z,2.20
2019-05-06T02:07:40.352Z,2.37
2019-05-06T02:10:11.039Z,1.73
2019-05-06T02:12:41.273Z,1.83
2019-05-06T02:15:11.996Z,2.23
2019-05-06T02:17:44.086Z,2.10
2019-05-06T02:20:14.223Z,1.53
2019-05-06T02:23:06.158Z,2.50
2019-05-06T02:25:44.672Z,1.70
2019-05-06T02:28:15.113Z,1.70
2019-05-06T02:31:05.321Z,2.10
2019-05-06T02:34:06.911Z,1.50
2019-05-06T02:37:14.739Z,1.53
2019-05-06T02:39:45.437Z,1.50
2019-05-06T02:42:15.642Z,2.17
2019-05-06T02:44:45.779Z,1.77
2019-05-06T02:47:34.059Z,1.77
2019-05-06T02:50:06.515Z,1.70
2019-05-06T02:52:36.672Z,1.83
2019-05-06T02:55:07.480Z,2.10
2019-05-06T02:57:37.994Z,1.90
2019-05-06T03:00:13.141Z,1.80
2019-05-06T03:02:47.056Z,2.00
2019-05-06T03:05:14.862Z,2.03
2019-05-06T03:07:45.037Z,2.17
2019-05-06T03:10:16.409Z,2.27
2019-05-06T03:12:46.728Z,2.10
2019-05-06T03:15:18.137Z,1.80
2019-05-06T03:17:49.176Z,2.47
2019-05-06T03:20:43.887Z,1.87
2019-05-06T03:23:15.072Z,1.80
2019-05-06T03:25:45.481Z,2.27
2019-05-06T03:28:15.537Z,1.90
2019-05-06T03:30:46.218Z,2.43
2019-05-06T03:33:40.094Z,1.90
2019-05-06T03:36:00.391Z,2.30
2019-05-06T03:38:22.927Z,2.10
2019-05-06T03:40:53.756Z,3.47
2019-05-06T03:43:23.954Z,2.77
2019-05-06T03:46:14.316Z,2.57
2019-05-06T03:48:46.198Z,2.53
2019-05-06T03:51:16.163Z,2.20
2019-05-06T03:53:46.542Z,2.27
2019-05-06T03:56:20.073Z,2.60
2019-05-06T03:58:53.709Z,2.37
2019-05-06T04:01:24.302Z,2.57
2019-05-06T04:03:57.200Z,3.20
2019-05-06T04:06:27.386Z,4.00
2019-05-06T04:08:58.445Z,3.00
2019-05-06T04:11:29.052Z,6.03
2019-05-06T04:14:02.529Z,4.10
2019-05-06T04:16:44.225Z,4.60
2019-05-06T04:19:23.685Z,3.40
2019-05-06T04:22:15.280Z,4.63
2019-05-06T04:24:55.733Z,4.80
2019-05-06T04:27:44.260Z,4.40
2019-05-06T04:30:14.723Z,5.67
2019-05-06T04:32:45.197Z,4.63
2019-05-06T04:35:15.377Z,4.50
2019-05-06T04:37:45.570Z,6.83
2019-05-06T04:40:15.884Z,5.87
2019-05-06T04:42:46.040Z,3.30
2019-05-06T04:45:17.407Z,4.53
2019-05-06T04:47:47.915Z,4.80
2019-05-06T04:50:18.249Z,5.57
2019-05-06T04:53:04.870Z,8.20
2019-05-06T04:55:35.757Z,6.23
2019-05-06T04:58:07.083Z,4.77
2019-05-06T05:00:38.140Z,7.50
2019-05-06T05:03:08.302Z,7.40
2019-05-06T05:05:38.417Z,6.13
2019-05-06T05:08:08.629Z,4.20
2019-05-06T05:11:06.928Z,4.80
2019-05-06T05:13:59.075Z,4.53
2019-05-06T05:16:52.824Z,4.17
2019-05-06T05:19:23.308Z,6.07
2019-05-06T05:21:56.747Z,6.07
2019-05-06T05:24:27.740Z,5.20
2019-05-06T05:26:58.139Z,5.03
2019-05-06T05:29:28.271Z,3.07
2019-05-06T05:31:58.693Z,3.60
2019-05-06T05:34:38.074Z,3.70
2019-05-06T05:37:02.894Z,3.77
2019-05-06T05:39:33.271Z,4.40
2019-05-06T05:42:16.135Z,3.90
2019-05-06T05:44:46.987Z,5.50
2019-05-06T05:47:17.009Z,3.63
2019-05-06T05:50:04.877Z,4.90
2019-05-06T05:52:35.168Z,2.90
2019-05-06T05:55:05.932Z,2.90
2019-05-06T05:57:36.243Z,4.30
2019-05-06T06:00:07.230Z,5.67
2019-05-06T06:02:38.261Z,3.47
2019-05-06T06:05:08.654Z,5.03
2019-05-06T06:07:38.954Z,3.30
2019-05-06T06:10:34.849Z,3.30
2019-05-06T06:13:05.600Z,3.60
2019-05-06T06:16:03.744Z,3.60
2019-05-06T06:18:58.959Z,4.27
2019-05-06T06:21:53.641Z,3.90
2019-05-06T06:24:28.040Z,3.77
2019-05-06T06:26:58.300Z,3.60
2019-05-06T06:29:29.615Z,2.27
2019-05-06T06:32:18.254Z,2.63
2019-05-06T06:35:11.432Z,3.23
2019-05-06T06:38:04.921Z,4.43
2019-05-06T06:40:35.224Z,2.90
2019-05-06T06:43:09.584Z,2.33
2019-05-06T06:45:39.594Z,3.13
2019-05-06T06:48:12.217Z,4.53
2019-05-06T06:50:42.636Z,2.63
2019-05-06T06:53:13.052Z,2.30
2019-05-06T06:55:43.735Z,2.50
2019-05-06T06:58:33.744Z,2.40
2019-05-06T07:01:18.224Z,2.93
2019-05-06T07:03:52.920Z,2.90
2019-05-06T07:06:34.880Z,2.80
2019-05-06T07:09:07.256Z,2.30
2019-05-06T07:11:37.509Z,2.53
2019-05-06T07:14:08.176Z,1.93
2019-05-06T07:16:38.495Z,1.90
2019-05-06T07:19:08.662Z,2.30
2019-05-06T07:21:48.026Z,3.47
2019-05-06T07:24:18.044Z,2.20
2019-05-06T07:26:52.592Z,1.87
2019-05-06T07:29:26.012Z,2.30
2019-05-06T07:31:54.923Z,2.20
2019-05-06T07:34:25.037Z,2.17
2019-05-06T07:36:55.309Z,2.13
2019-05-06T07:39:25.378Z,2.53
2019-05-06T07:41:58.653Z,2.50
2019-05-06T07:44:52.749Z,2.00
2019-05-06T07:47:52.911Z,2.50
2019-05-06T07:50:22.433Z,2.27
2019-05-06T07:53:13.335Z,2.43
2019-05-06T07:55:43.710Z,1.97
2019-05-06T07:58:13.989Z,3.07
2019-05-06T08:00:44.265Z,2.93
2019-05-06T08:03:14.706Z,2.53
2019-05-06T08:05:54.704Z,2.37
2019-05-06T08:08:17.809Z,2.20
2019-05-06T08:10:48.093Z,2.43
2019-05-06T08:13:18.368Z,2.63
2019-05-06T08:15:48.434Z,2.60
2019-05-06T08:18:18.538Z,3.40
2019-05-06T08:20:49.387Z,2.80
2019-05-06T08:23:25.856Z,2.30
2019-05-06T08:26:09.101Z,2.37
2019-05-06T08:28:38.630Z,2.20
2019-05-06T08:31:02.326Z,2.57
2019-05-06T08:33:32.826Z,3.57
2019-05-06T08:36:11.598Z,2.43
2019-05-06T08:38:54.519Z,3.10
2019-05-06T08:41:24.756Z,3.43
2019-05-06T08:43:55.879Z,2.57
2019-05-06T08:46:26.137Z,3.00
2019-05-06T08:48:56.442Z,2.37
2019-05-06T08:51:49.036Z,2.23
2019-05-06T08:54:29.001Z,3.20
2019-05-06T08:56:59.270Z,2.67
2019-05-06T08:59:31.943Z,2.93
2019-05-06T09:02:03.139Z,2.67
2019-05-06T09:04:33.719Z,2.30
2019-05-06T09:07:04.264Z,2.13
2019-05-06T09:09:34.465Z,2.40
2019-05-06T09:12:05.060Z,2.40
2019-05-06T09:14:35.401Z,2.40
2019-05-06T09:17:06.696Z,2.90
2019-05-06T09:19:36.922Z,2.83
2019-05-06T09:22:07.117Z,2.70
2019-05-06T09:24:37.192Z,2.33
2019-05-06T09:27:18.009Z,2.90
2019-05-06T09:29:53.416Z,2.60
2019-05-06T09:32:36.066Z,3.50
2019-05-06T09:35:03.858Z,4.20
2019-05-06T09:37:34.185Z,2.70
2019-05-06T09:40:04.881Z,2.33
2019-05-06T09:42:35.477Z,2.70
2019-05-06T09:45:06.421Z,2.60
2019-05-06T09:47:45.548Z,2.87
2019-05-06T09:50:17.720Z,2.97
2019-05-06T09:52:48.017Z,3.70
2019-05-06T09:55:43.104Z,2.37
2019-05-06T09:58:13.849Z,3.20
2019-05-06T10:00:46.057Z,2.90
2019-05-06T10:03:16.120Z,2.65
2019-05-06T10:05:46.259Z,2.83
2019-05-06T10:08:16.519Z,3.00
2019-05-06T10:10:56.186Z,2.80
2019-05-06T10:13:18.508Z,3.53
2019-05-06T10:15:49.262Z,2.60
2019-05-06T10:18:19.744Z,3.13
2019-05-06T10:20:50.016Z,2.87
2019-05-06T10:23:22.230Z,3.70
2019-05-06T10:25:52.309Z,2.97
2019-05-06T10:28:45.552Z,3.83
2019-05-06T10:31:17.740Z,3.40
2019-05-06T10:34:05.672Z,3.50
2019-05-06T10:36:48.695Z,3.30
2019-05-06T10:39:22.940Z,3.90
2019-05-06T10:42:13.010Z,3.40
2019-05-06T10:45:29.433Z,3.70
2019-05-06T10:47:59.556Z,3.53
2019-05-06T10:50:33.425Z,2.37
2019-05-06T10:53:34.731Z,3.40
2019-05-06T10:56:23.604Z,2.50
2019-05-06T10:58:54.162Z,3.23
2019-05-06T11:01:30.087Z,2.60
2019-05-06T11:04:02.687Z,3.30
2019-05-06T11:06:33.673Z,2.90
2019-05-06T11:09:05.489Z,1.87
2019-05-06T11:11:38.662Z,3.27
2019-05-06T11:14:07.844Z,3.37
2019-05-06T11:16:38.025Z,3.10
2019-05-06T11:19:08.088Z,1.93
2019-05-06T11:21:38.672Z,2.40
2019-05-06T11:24:08.935Z,2.80
2019-05-06T11:26:39.157Z,2.60
2019-05-06T11:29:19.743Z,2.57
2019-05-06T11:32:08.794Z,2.23
2019-05-06T11:34:47.890Z,3.33
2019-05-06T11:37:54.198Z,2.13
2019-05-06T11:40:23.592Z,2.70
2019-05-06T11:42:53.860Z,3.60
2019-05-06T11:45:24.009Z,2.27
2019-05-06T11:47:55.922Z,1.93
2019-05-06T11:50:25.776Z,2.60
2019-05-06T11:52:57.119Z,2.43
2019-05-06T11:55:32.513Z,2.20
2019-05-06T11:57:59.545Z,2.20
2019-05-06T12:00:36.034Z,2.20
2019-05-06T12:03:06.461Z,3.07
2019-05-06T12:05:36.734Z,2.30
2019-05-06T12:08:08.389Z,3.00
2019-05-06T12:10:38.594Z,2.50
2019-05-06T12:13:09.013Z,3.15
2019-05-06T12:15:39.278Z,2.77
2019-05-06T12:18:12.392Z,1.90
2019-05-06T12:20:42.619Z,2.00
2019-05-06T12:23:15.591Z,2.20
2019-05-06T12:25:46.219Z,3.03
2019-05-06T12:28:17.639Z,1.90
2019-05-06T12:30:47.765Z,2.43
2019-05-06T12:33:37.019Z,2.63
2019-05-06T12:36:20.934Z,2.83
2019-05-06T12:39:09.932Z,2.10
2019-05-06T12:41:58.850Z,2.13
2019-05-06T12:44:32.134Z,2.03
2019-05-06T12:47:13.465Z,3.00
2019-05-06T12:49:43.707Z,2.10
2019-05-06T12:52:13.791Z,2.73
2019-05-06T12:54:43.937Z,3.13
2019-05-06T12:57:14.056Z,2.90
2019-05-06T12:59:44.077Z,2.83
2019-05-06T13:02:14.446Z,3.43
2019-05-06T13:04:55.316Z,2.83
2019-05-06T13:07:23.736Z,2.70
2019-05-06T13:09:54.149Z,2.50
2019-05-06T13:12:27.142Z,2.67
2019-05-06T13:14:57.320Z,3.20
2019-05-06T13:17:32.771Z,3.53
2019-05-06T13:20:02.982Z,2.87
2019-05-06T13:22:47.002Z,3.13
2019-05-06T13:25:17.319Z,4.10
2019-05-06T13:27:48.412Z,2.60
2019-05-06T13:30:19.164Z,3.23
2019-05-06T13:32:54.152Z,4.00
2019-05-06T13:35:24.479Z,3.40
2019-05-06T13:37:54.661Z,2.90
2019-05-06T13:40:27.120Z,3.67
2019-05-06T13:43:14.080Z,3.27
2019-05-06T13:45:46.121Z,3.13
2019-05-06T13:48:38.497Z,3.47
2019-05-06T13:51:12.496Z,3.47
2019-05-06T13:53:46.061Z,3.90
2019-05-06T13:56:15.495Z,3.60
2019-05-06T13:58:45.509Z,2.90
2019-05-06T14:01:18.589Z,4.03
2019-05-06T14:03:48.654Z,3.97
2019-05-06T14:06:18.892Z,3.20
2019-05-06T14:08:48.901Z,3.93
2019-05-06T14:11:19.045Z,4.37
2019-05-06T14:13:49.219Z,4.73
2019-05-06T14:16:19.213Z,3.33
2019-05-06T14:18:49.296Z,3.90
2019-05-06T14:21:19.439Z,3.00
2019-05-06T14:23:49.512Z,4.47
2019-05-06T14:26:34.772Z,3.70
2019-05-06T14:29:08.433Z,3.67
2019-05-06T14:31:52.325Z,4.00
2019-05-06T14:34:22.944Z,4.20
2019-05-06T14:36:53.546Z,4.20
2019-05-06T14:39:47.579Z,3.47
2019-05-06T14:41:58.976Z,4.77
2019-05-06T14:44:29.023Z,3.50
2019-05-06T14:47:09.400Z,3.83
2019-05-06T14:49:39.682Z,4.13
2019-05-06T14:52:09.980Z,4.27
2019-05-06T14:54:54.574Z,4.33
2019-05-06T14:57:25.857Z,4.40
2019-05-06T14:59:56.150Z,5.13
2019-05-06T15:02:27.757Z,4.30
2019-05-06T15:04:58.107Z,4.10
2019-05-06T15:07:28.240Z,3.80
2019-05-06T15:10:16.429Z,3.90
2019-05-06T15:12:30.193Z,4.23
2019-05-06T15:15:00.291Z,4.17
2019-05-06T15:17:32.774Z,3.90
2019-05-06T15:20:02.939Z,4.83
2019-05-06T15:22:33.444Z,4.30
2019-05-06T15:25:03.628Z,4.97
2019-05-06T15:27:33.843Z,4.10
2019-05-06T15:30:06.784Z,3.87
2019-05-06T15:32:38.471Z,4.37
2019-05-06T15:35:18.823Z,3.50
2019-05-06T15:37:53.400Z,4.17
2019-05-06T15:40:32.905Z,4.93
2019-05-06T15:42:56.721Z,5.27
2019-05-06T15:45:29.932Z,4.80
2019-05-06T15:48:02.527Z,4.13
2019-05-06T15:50:35.354Z,3.37
2019-05-06T15:53:05.910Z,4.40
2019-05-06T15:55:35.913Z,3.50
2019-05-06T15:58:06.883Z,4.23
2019-05-06T16:00:37.181Z,3.93
2019-05-06T16:03:07.142Z,3.70
2019-05-06T16:05:37.352Z,3.40
2019-05-06T16:08:07.520Z,3.17
2019-05-06T16:10:51.321Z,3.63
2019-05-06T16:13:10.016Z,4.63
2019-05-06T16:15:42.214Z,3.70
2019-05-06T16:18:13.010Z,4.00
2019-05-06T16:20:43.031Z,3.10
2019-05-06T16:23:23.109Z,3.93
2019-05-06T16:25:53.280Z,3.43
2019-05-06T16:28:23.465Z,4.13
2019-05-06T16:30:53.725Z,3.43
2019-05-06T16:33:24.412Z,3.57
2019-05-06T16:35:54.674Z,3.17
2019-05-06T16:38:24.646Z,3.10
2019-05-06T16:41:09.076Z,4.13
2019-05-06T16:43:26.452Z,3.00
2019-05-06T16:45:56.512Z,3.37
2019-05-06T16:48:26.720Z,3.23
2019-05-06T16:50:56.913Z,3.40
2019-05-06T16:53:30.030Z,3.40
2019-05-06T16:56:22.138Z,3.47
2019-05-06T16:58:55.637Z,3.43
2019-05-06T17:01:26.015Z,2.80
2019-05-06T17:04:17.102Z,3.00
2019-05-06T17:06:47.256Z,3.83
2019-05-06T17:09:23.654Z,3.90
2019-05-06T17:11:48.977Z,4.80
2019-05-06T17:14:18.983Z,3.10
2019-05-06T17:16:49.371Z,3.40
2019-05-06T17:19:19.398Z,3.53
2019-05-06T17:21:49.643Z,4.70
2019-05-06T17:24:21.924Z,3.50
2019-05-06T17:26:55.999Z,3.50
2019-05-06T17:29:42.802Z,3.60
2019-05-06T17:32:24.074Z,4.60
2019-05-06T17:34:57.379Z,3.77
2019-05-06T17:38:04.062Z,3.70
2019-05-06T17:40:34.144Z,5.00
2019-05-06T17:43:04.233Z,3.00
2019-05-06T17:46:08.597Z,4.27
2019-05-06T17:48:58.006Z,3.50
2019-05-06T17:51:33.860Z,3.40
2019-05-06T17:54:05.743Z,3.50
2019-05-06T17:56:36.016Z,2.80
2019-05-06T17:59:06.257Z,3.43
2019-05-06T18:01:42.843Z,3.17
2019-05-06T18:04:13.651Z,3.20
2019-05-06T18:06:43.785Z,4.67
2019-05-06T18:09:13.887Z,3.10
2019-05-06T18:11:57.146Z,3.57
2019-05-06T18:14:15.601Z,3.60
2019-05-06T18:16:45.661Z,2.93
2019-05-06T18:19:15.964Z,3.07
2019-05-06T18:21:46.292Z,3.87
2019-05-06T18:24:16.677Z,4.07
2019-05-06T18:26:47.052Z,3.70
2019-05-06T18:29:17.300Z,3.13
2019-05-06T18:31:47.412Z,2.80
2019-05-06T18:34:17.688Z,2.83
2019-05-06T18:36:47.982Z,3.20
2019-05-06T18:39:18.098Z,3.03
2019-05-06T18:41:48.462Z,3.40
2019-05-06T18:44:18.876Z,3.20
2019-05-06T18:46:48.969Z,3.50
2019-05-06T18:49:19.483Z,3.10
2019-05-06T18:51:51.390Z,2.93
2019-05-06T18:54:22.083Z,3.27
2019-05-06T18:56:52.450Z,3.73
2019-05-06T18:59:23.189Z,3.00
2019-05-06T19:01:53.858Z,3.20
2019-05-06T19:04:52.153Z,3.33
2019-05-06T19:07:22.211Z,2.73
2019-05-06T19:09:57.471Z,3.20
2019-05-06T19:12:34.621Z,2.87
2019-05-06T19:14:59.840Z,3.30
2019-05-06T19:17:30.246Z,2.77
2019-05-06T19:20:02.832Z,2.63
2019-05-06T19:22:33.124Z,2.60
2019-05-06T19:25:03.526Z,2.70
2019-05-06T19:27:33.856Z,2.60
2019-05-06T19:30:10.070Z,3.10
2019-05-06T19:32:42.387Z,3.20
2019-05-06T19:35:13.339Z,3.10
2019-05-06T19:37:45.863Z,3.33
2019-05-06T19:40:19.199Z,2.70
2019-05-06T19:42:52.594Z,2.60
2019-05-06T19:45:22.469Z,3.30
2019-05-06T19:47:53.329Z,2.70
2019-05-06T19:50:25.972Z,3.17
2019-05-06T19:52:57.753Z,2.80
2019-05-06T19:55:27.751Z,2.90
2019-05-06T19:57:57.753Z,2.40
2019-05-06T20:00:27.907Z,2.37
2019-05-06T20:03:02.752Z,2.50
2019-05-06T20:06:02.571Z,2.70
2019-05-06T20:08:45.756Z,2.07
2019-05-06T20:11:29.933Z,3.20
2019-05-06T20:14:02.080Z,2.60
2019-05-06T20:16:41.967Z,2.07
2019-05-06T20:19:29.775Z,2.37
2019-05-06T20:21:47.527Z,2.67
2019-05-06T20:24:18.012Z,2.40
2019-05-06T20:26:54.807Z,2.47
2019-05-06T20:29:26.544Z,2.00
2019-05-06T20:31:57.616Z,2.67
2019-05-06T20:34:32.870Z,2.03
2019-05-06T20:37:03.951Z,1.73
2019-05-06T20:39:34.464Z,2.37
2019-05-06T20:42:05.066Z,2.57
2019-05-06T20:44:35.203Z,2.40
2019-05-06T20:47:05.349Z,2.57
2019-05-06T20:49:35.449Z,3.33
2019-05-06T20:52:05.718Z,2.87
2019-05-06T20:54:36.108Z,3.60
2019-05-06T20:57:06.265Z,2.60
2019-05-06T20:59:36.459Z,2.43
2019-05-06T21:02:07.194Z,2.30
2019-05-06T21:04:37.522Z,3.83
2019-05-06T21:07:07.452Z,3.00
2019-05-06T21:09:37.632Z,2.67
2019-05-06T21:12:07.585Z,2.40
2019-05-06T21:14:37.679Z,2.90
2019-05-06T21:17:07.702Z,2.00
2019-05-06T21:19:37.834Z,2.00
2019-05-06T21:22:08.017Z,2.30
2019-05-06T21:24:38.338Z,2.17
2019-05-06T21:27:08.604Z,1.97
2019-05-06T21:29:38.808Z,2.40
2019-05-06T21:32:08.816Z,1.90
2019-05-06T21:34:38.835Z,1.90
2019-05-06T21:37:09.189Z,2.50
2019-05-06T21:39:39.251Z,2.20
2019-05-06T21:42:09.272Z,2.37
2019-05-06T21:44:39.311Z,2.87
2019-05-06T21:47:09.356Z,2.73
2019-05-06T21:49:39.456Z,2.20
2019-05-06T21:52:09.749Z,2.60
2019-05-06T21:54:39.797Z,2.90
2019-05-06T21:57:12.124Z,4.03
2019-05-06T21:59:42.748Z,2.90
2019-05-06T22:02:14.457Z,2.70
2019-05-06T22:04:44.531Z,2.90
2019-05-06T22:07:14.652Z,2.63
2019-05-06T22:09:45.664Z,3.13
2019-05-06T22:12:16.402Z,3.77
2019-05-06T22:14:46.764Z,2.80
2019-05-06T22:17:17.284Z,3.30
2019-05-06T22:19:47.300Z,3.47
2019-05-06T22:22:20.518Z,2.90
2019-05-06T22:24:55.199Z,3.03
2019-05-06T22:27:22.811Z,4.03
2019-05-06T22:29:52.977Z,3.47
2019-05-06T22:32:23.297Z,3.23
2019-05-06T22:34:53.443Z,3.37
2019-05-06T22:37:23.604Z,4.37
2019-05-06T22:39:53.875Z,3.33
2019-05-06T22:42:24.965Z,3.00
2019-05-06T22:44:55.235Z,3.97
2019-05-06T22:47:25.423Z,4.20
2019-05-06T22:49:55.463Z,3.60
2019-05-06T22:52:25.484Z,3.40
2019-05-06T22:54:56.088Z,4.17
2019-05-06T22:57:26.201Z,3.93
2019-05-06T22:59:56.225Z,3.93
2019-05-06T23:02:35.172Z,3.90
2019-05-06T23:05:05.953Z,3.97
2019-05-06T23:07:36.316Z,4.07
2019-05-06T23:10:07.128Z,4.30
2019-05-06T23:12:37.416Z,5.13
2019-05-06T23:15:08.999Z,4.67
2019-05-06T23:17:39.141Z,3.90
2019-05-06T23:20:09.421Z,4.30
2019-05-06T23:22:39.429Z,4.00
2019-05-06T23:25:12.404Z,4.40
2019-05-06T23:27:44.224Z,4.67
2019-05-06T23:30:14.372Z,4.67
2019-05-06T23:32:44.508Z,4.40
2019-05-06T23:35:14.965Z,4.60
2019-05-06T23:38:22.957Z,3.90
2019-05-06T23:41:27.533Z,4.83
2019-05-06T23:44:45.055Z,4.77
2019-05-06T23:47:42.242Z,4.53
2019-05-06T23:50:47.807Z,4.70
2019-05-06T23:53:53.147Z,4.57
2019-05-06T23:56:43.249Z,4.10
2019-05-06T23:59:14.899Z,4.53
